Portada
METAR-TAF:

METAR-TAF

Aeroports :

Nakhon Ratchasima, Tailàndia

latitud: 14-56-58N, longitud: 102-18-45E, altitud: 233 m

Observació

L'informe es va fer fa 1 hora i 16 minuts, a les 00:00 UTC
Vent 6 kt del Nord-Est
Temperatura 23°C
Humitat 94%
Pressió 1015 hPa
Visibilitat 10 km o més
sense núvols per sota de 1500 mi sense presència de cumulonimbus.

METAR: VTUQ 140000Z 05006KT CAVOK 23/22 Q1015 NOSIG

Hora: 08:16 (01:16 UTC)

Pronòstic

L'informe es va fer fa 2 hores i 16 minuts, a les 23:00 UTC
Pronòstic vàlid del 14 a les 00 UTC al 14 a les 24 UTC
Vent 5 kt del Nord-Est
Visibilitat: 5000 m
Escasses núvols a una alçada de 3000 ft
boirina
Evolucionant progressivament
l' 14 a les 01 UTC al 14 a les 03 UTC
Visibilitat: 8000 m
Evolucionant progressivament
l' 14 a les 20 UTC al 14 a les 22 UTC
Visibilitat: 5000 m
boirina

TAF: VTUQ 132300Z 1400/1424 05005KT 5000 BR FEW030 BECMG 1401/1403 8000 NSW BECMG 1420/1422 5000 BR

Observacions i pronòstics meteorològics de més de 4000 aeroports (METAR i TAF).

Les estacions disponibles són els punts grocs i vermells al mapa.

Posi el ratolí al punt desitjat per veure el nom de l'estació.

Feu clic per veure les observacions i els pronòstics meteorològics.

Per canviar el mapa: feu clic els botons verds amb una creu de color negre per apropar; al botó verd amb un guió per allunyar la imatge; o en les fletxes verdes per a mapes adjacents.


METAR-TAF: